Terminal Aerodrome Forecast
Issued by NWS

Home | Current Version | Previous Version | Graphics & Text | Print | Product List | Glossary On
Versions: 1 2 3 4 5 6 7 8 9 10 11 12 13 14 15 16 17 18 19
933
FTUS43 KFGF 190520
TAFBJI
TAF
KBJI 190520Z 1906/2006 15007KT P6SM BKN008
     FM191000 15009KT P6SM BKN003
     FM191400 14013KT P6SM OVC003
     FM191700 14015G23KT P6SM BKN010
     FM191900 14017KT P6SM BKN035
     FM200200 13014KT P6SM VCTS BKN025CB=

USA.gov is the U.S. government's official web portal to all federal, state and local government web resources and services.